• Join FlightAware (Why Join?)
  • Login
  • US Flag 
04:09AM EST


 

Airport Tracker/Info


-or-


 

Live Flight TrackerFlight Track Log ✈ LBQ652 ✈ 01-May-2013 ✈ KIXD - KSUS

Flight Track Log - Related Links

Times and Time Zones

All times are in EDT time to prevent confusion due to time zone crossing. See the LBQ652 flight status page for this flight to view local times or setup timezone preferences in your user account.

Time Position Orientation Groundspeed Altitude Reporting Facility
EDT Latitude Longitude Course Direction KTS MPH feet Rate Location/Type
05:01AM 38.8117 -94.8356 102° East 226 260 3,400  Level Kansas City Center
05:02AM 38.8169 -94.7472 86° East 267 307 5,000 1,980 Climbing Kansas City Center
05:03AM 38.8139 -94.6344 92° East 282 325 7,500 2,100 Climbing Kansas City Center
05:04AM 38.8125 -94.5367 91° East 287 330 9,300 1,620 Climbing Kansas City Center
05:05AM 38.8097 -94.4383 92° East 289 333 10,800 1,500 Climbing Kansas City Center
05:06AM 38.8067 -94.3183 92° East 302 348 12,400 1,440 Climbing Kansas City Center
05:07AM 38.8044 -94.2139 92° East 305 351 13,800 1,260 Climbing Kansas City Center
05:08AM 38.8014 -94.1056 92° East 316 364 15,000 1,320 Climbing Kansas City Center
05:09AM 38.7992 -93.9772 91° East 323 372 16,500 1,380 Climbing Kansas City Center
05:10AM 38.7956 -93.8681 92° East 320 368 17,800 1,380 Climbing Kansas City Center
05:11AM 38.7917 -93.7456 92° East 323 372 19,300 1,320 Climbing Kansas City Center
05:12AM 38.7875 -93.6264 93° East 332 382 20,500 1,200 Climbing Kansas City Center
05:13AM 38.7836 -93.5100 92° East 329 379 21,800 1,200 Climbing Kansas City Center
05:14AM 38.7814 -93.3853 91° East 336 387 23,000 540 Climbing Kansas City Center
05:15AM 38.7769 -93.2542 92° East 358 412 23,000  Level Kansas City Center
05:16AM 38.7733 -93.1217 92° East 367 422 23,000  Level Kansas City Center
05:17AM 38.7689 -92.9908 92° East 368 423 23,000  Level Kansas City Center
05:18AM 38.7639 -92.8586 93° East 369 425 23,000  Level Kansas City Center
05:19AM 38.7594 -92.7289 92° East 366 421 23,000  Level Kansas City Center
05:20AM 38.7536 -92.5986 93° East 364 419 23,000  Level Kansas City Center
05:21AM 38.7492 -92.4683 92° East 364 419 23,000  Level Kansas City Center
05:22AM 38.7433 -92.3358 93° East 367 422 23,000  Level Kansas City Center
05:23AM 38.7381 -92.2058 93° East 366 421 23,000  Level Kansas City Center
05:24AM 38.7311 -92.0758 94° East 363 418 23,000  Level Kansas City Center
05:26AM 38.7256 -91.9456 93° East 364 419 23,000  Level Kansas City Center
05:27AM 38.7203 -91.8147 93° East 365 420 23,000 -600 Level Kansas City Center
05:28AM 38.7142 -91.7033 94° East 365 420 21,900 -2,340 Descending Kansas City Center
05:29AM 38.7075 -91.5439 93° East 372 428 18,400 -3,180 Descending Kansas City Center
05:30AM 38.7011 -91.4178 94° East 362 417 15,600 -2,640 Descending Kansas City Center
05:31AM 38.6953 -91.2994 94° East 341 392 13,100 -2,520 Descending Kansas City Center
05:32AM 38.6853 -91.1856 96° East 326 375 10,600 -2,460 Descending Kansas City Center
05:33AM 38.6794 -91.0786 94° East 309 356 8,200 -2,340 Descending Kansas City Center
05:34AM 38.6706 -90.9728 96° East 303 349 5,900 -2,280 Descending Kansas City Center
05:35AM 38.6606 -90.8753 97° East 292 336 3,700 -1,740 Descending Kansas City Center
05:36AM 38.6497 -90.7853 99° East 275 316 2,400 -1,140 Descending Kansas City Center
05:37AM 38.6481 -90.7142 92° East 230 265 1,500 -900 Descending Kansas City Center
05:38AM 38.6572 -90.6639 77° East 174 200 600 -900 Descending Kansas City Center